createdAt,value
2019-01-21T00:02:21.755Z,-3.80
2019-01-21T00:04:52.295Z,-3.90
2019-01-21T00:07:22.416Z,-3.90
2019-01-21T00:09:52.138Z,-3.90
2019-01-21T00:12:22.325Z,-3.90
2019-01-21T00:14:51.884Z,-3.90
2019-01-21T00:17:22.471Z,-3.90
2019-01-21T00:19:52.278Z,-3.90
2019-01-21T00:22:21.828Z,-3.80
2019-01-21T00:24:51.789Z,-3.80
2019-01-21T00:27:21.361Z,-3.80
2019-01-21T00:29:50.920Z,-3.80
2019-01-21T00:32:20.809Z,-3.90
2019-01-21T00:34:50.724Z,-3.90
2019-01-21T00:37:20.284Z,-3.90
2019-01-21T00:39:50.147Z,-3.90
2019-01-21T00:42:20.055Z,-3.90
2019-01-21T00:44:49.654Z,-4.00
2019-01-21T00:47:19.309Z,-4.00
2019-01-21T00:49:49.181Z,-4.00
2019-01-21T00:52:18.989Z,-4.00
2019-01-21T00:54:48.557Z,-4.10
2019-01-21T00:57:18.208Z,-4.10
2019-01-21T00:59:48.116Z,-4.10
2019-01-21T01:02:18.065Z,-4.10
2019-01-21T01:04:48.045Z,-4.10
2019-01-21T01:07:17.993Z,-4.10
2019-01-21T01:09:48.180Z,-4.20
2019-01-21T01:12:17.765Z,-4.20
2019-01-21T01:14:47.436Z,-4.20
2019-01-21T01:17:17.304Z,-4.20
2019-01-21T01:19:46.969Z,-4.20
2019-01-21T01:22:16.825Z,-4.30
2019-01-21T01:24:46.420Z,-4.30
2019-01-21T01:27:16.249Z,-4.30
2019-01-21T01:29:46.363Z,-4.30
2019-01-21T01:32:16.232Z,-4.30
2019-01-21T01:34:46.121Z,-4.30
2019-01-21T01:37:15.684Z,-4.30
2019-01-21T01:39:45.600Z,-4.40
2019-01-21T01:43:10.097Z,-4.40
2019-01-21T01:45:40.317Z,-4.50
2019-01-21T01:48:10.334Z,-4.50
2019-01-21T01:50:39.904Z,-4.50
2019-01-21T01:53:09.961Z,-4.50
2019-01-21T01:55:39.520Z,-4.50
2019-01-21T01:58:09.356Z,-4.50
2019-01-21T02:00:39.096Z,-4.60
2019-01-21T02:03:08.808Z,-4.60
2019-01-21T02:05:38.396Z,-4.70
2019-01-21T02:08:08.310Z,-4.70
2019-01-21T02:10:38.325Z,-4.70
2019-01-21T02:13:08.254Z,-4.70
2019-01-21T02:15:38.139Z,-4.70
2019-01-21T02:18:07.867Z,-4.70
2019-01-21T02:20:38.852Z,-4.70
2019-01-21T02:23:12.616Z,-4.70
2019-01-21T02:25:52.865Z,-4.80
2019-01-21T02:28:49.492Z,-4.80
2019-01-21T02:31:45.833Z,-4.80
2019-01-21T02:34:28.089Z,-4.80
2019-01-21T02:37:32.153Z,-4.80
2019-01-21T02:40:26.454Z,-4.90
2019-01-21T02:43:10.756Z,-4.80
2019-01-21T02:46:05.937Z,-4.80
2019-01-21T02:49:03.581Z,-4.90
2019-01-21T02:52:22.320Z,-4.80
2019-01-21T02:55:04.968Z,-4.90
2019-01-21T02:58:11.713Z,-4.90
2019-01-21T03:01:17.244Z,-4.90
2019-01-21T03:04:13.064Z,-4.90
2019-01-21T03:07:23.462Z,-5.00
2019-01-21T03:10:20.024Z,-5.10
2019-01-21T03:13:12.412Z,-5.10
2019-01-21T03:16:25.561Z,-5.10
2019-01-21T03:19:18.218Z,-5.10
2019-01-21T03:22:41.251Z,-5.20
2019-01-21T03:25:45.427Z,-5.20
2019-01-21T03:29:19.382Z,-5.20
2019-01-21T03:32:24.851Z,-5.20
2019-01-21T03:35:07.551Z,-5.20
2019-01-21T03:38:39.386Z,-5.10
2019-01-21T03:41:56.633Z,-5.10
2019-01-21T03:45:18.657Z,-5.10
2019-01-21T03:48:16.473Z,-5.20
2019-01-21T03:51:07.089Z,-5.20
2019-01-21T03:54:08.159Z,-5.30
2019-01-21T03:57:05.855Z,-5.30
2019-01-21T04:00:00.973Z,-5.40
2019-01-21T04:03:04.128Z,-5.40
2019-01-21T04:06:05.150Z,-5.50
2019-01-21T04:09:07.032Z,-5.60
2019-01-21T04:12:20.978Z,-5.50
2019-01-21T04:15:30.622Z,-5.50
2019-01-21T04:18:28.829Z,-5.50
2019-01-21T04:21:46.733Z,-5.40
2019-01-21T04:25:06.218Z,-5.50
2019-01-21T04:28:23.660Z,-5.50
2019-01-21T04:31:33.608Z,-5.60
2019-01-21T04:34:33.116Z,-5.70
2019-01-21T04:37:45.698Z,-5.70
2019-01-21T04:40:29.987Z,-5.70
2019-01-21T04:43:36.781Z,-5.70
2019-01-21T04:46:36.011Z,-5.60
2019-01-21T04:49:37.704Z,-5.60
2019-01-21T04:52:47.300Z,-5.60
2019-01-21T04:55:32.940Z,-5.60
2019-01-21T04:58:31.404Z,-5.50
2019-01-21T05:01:38.585Z,-5.50
2019-01-21T05:04:55.429Z,-5.50
2019-01-21T05:08:01.276Z,-5.50
2019-01-21T05:11:07.653Z,-5.50
2019-01-21T05:14:08.165Z,-5.50
2019-01-21T05:17:30.129Z,-5.50
2019-01-21T05:20:40.033Z,-5.60
2019-01-21T05:23:37.449Z,-5.60
2019-01-21T05:26:41.632Z,-5.70
2019-01-21T05:29:57.271Z,-5.80
2019-01-21T05:33:00.186Z,-5.80
2019-01-21T05:36:12.668Z,-5.70
2019-01-21T05:39:24.825Z,-5.70
2019-01-21T05:42:31.776Z,-5.70
2019-01-21T05:45:30.905Z,-5.70
2019-01-21T05:48:53.795Z,-5.60
2019-01-21T05:52:10.958Z,-5.60
2019-01-21T05:55:24.928Z,-5.60
2019-01-21T05:58:49.824Z,-5.60
2019-01-21T06:02:15.936Z,-5.50
2019-01-21T06:05:15.952Z,-5.40
2019-01-21T06:08:40.793Z,-5.40
2019-01-21T06:11:42.329Z,-5.50
2019-01-21T06:14:27.796Z,-5.40
2019-01-21T06:17:12.041Z,-5.30
2019-01-21T06:20:17.384Z,-5.30
2019-01-21T06:23:26.304Z,-5.30
2019-01-21T06:26:31.924Z,-5.20
2019-01-21T06:29:48.984Z,-5.20
2019-01-21T06:33:02.536Z,-5.10
2019-01-21T06:35:59.177Z,-5.10
2019-01-21T06:38:53.861Z,-5.10
2019-01-21T06:42:14.449Z,-5.10
2019-01-21T06:45:16.576Z,-5.10
2019-01-21T06:48:23.660Z,-5.10
2019-01-21T06:51:43.717Z,-5.10
2019-01-21T06:55:09.916Z,-5.10
2019-01-21T06:58:30.014Z,-5.00
2019-01-21T07:01:46.667Z,-5.00
2019-01-21T07:04:50.553Z,-5.00
2019-01-21T07:07:49.317Z,-5.00
2019-01-21T07:10:35.953Z,-5.00
2019-01-21T07:13:22.024Z,-4.90
2019-01-21T07:16:29.516Z,-4.90
2019-01-21T07:19:48.889Z,-4.80
2019-01-21T07:22:57.465Z,-4.80
2019-01-21T07:26:11.309Z,-4.70
2019-01-21T07:29:05.037Z,-5.00
2019-01-21T07:32:03.708Z,-5.00
2019-01-21T07:35:05.086Z,-5.00
2019-01-21T07:38:44.208Z,-5.10
2019-01-21T07:41:59.064Z,-5.30
2019-01-21T07:44:58.156Z,-5.30
2019-01-21T07:48:07.924Z,-5.30
2019-01-21T07:51:25.240Z,-5.30
2019-01-21T07:54:23.849Z,-5.30
2019-01-21T07:57:50.651Z,-5.20
2019-01-21T08:00:50.696Z,-5.20
2019-01-21T08:03:56.983Z,-5.10
2019-01-21T08:07:08.324Z,-5.10
2019-01-21T08:10:18.010Z,-5.10
2019-01-21T08:12:59.375Z,-5.10
2019-01-21T08:16:16.323Z,-5.10
2019-01-21T08:19:24.427Z,-5.10
2019-01-21T08:22:12.177Z,-5.00
2019-01-21T08:25:19.437Z,-5.00
2019-01-21T08:28:02.515Z,-5.00
2019-01-21T08:31:04.193Z,-4.90
2019-01-21T08:34:23.753Z,-4.90
2019-01-21T08:37:16.843Z,-5.00
2019-01-21T08:40:28.525Z,-5.10
2019-01-21T08:43:51.665Z,-5.10
2019-01-21T08:50:35.636Z,-4.90
2019-01-21T08:53:41.596Z,-4.90
2019-01-21T08:56:31.076Z,-4.90
2019-01-21T08:59:17.465Z,-4.90
2019-01-21T09:02:31.423Z,-4.90
2019-01-21T09:05:27.029Z,-4.80
2019-01-21T09:08:37.592Z,-4.70
2019-01-21T09:11:21.849Z,-4.60
2019-01-21T09:14:22.281Z,-4.60
2019-01-21T09:17:31.298Z,-4.70
2019-01-21T09:20:29.588Z,-4.90
2019-01-21T09:23:18.364Z,-4.90
2019-01-21T09:26:21.520Z,-4.80
2019-01-21T09:29:22.783Z,-4.60
2019-01-21T09:32:58.013Z,-4.50
2019-01-21T09:36:21.693Z,-4.50
2019-01-21T09:39:26.520Z,-4.50
2019-01-21T09:42:24.952Z,-4.60
2019-01-21T09:45:12.238Z,-4.60
2019-01-21T09:47:40.804Z,-4.60
2019-01-21T09:50:10.824Z,-4.60
2019-01-21T09:52:41.820Z,-4.60
2019-01-21T09:55:12.945Z,-4.50
2019-01-21T09:57:45.064Z,-4.40
2019-01-21T10:00:17.860Z,-4.30
2019-01-21T10:02:50.652Z,-4.20
2019-01-21T10:05:20.408Z,-4.10
2019-01-21T10:08:29.260Z,-4.10
2019-01-21T10:11:47.304Z,-4.10
2019-01-21T10:15:07.392Z,-3.90
2019-01-21T10:18:27.693Z,-3.80
2019-01-21T10:22:00.500Z,-3.70
2019-01-21T10:25:06.968Z,-3.60
2019-01-21T10:27:56.120Z,-3.50
2019-01-21T10:30:41.692Z,-3.50
2019-01-21T10:34:04.042Z,-3.50
2019-01-21T10:37:02.007Z,-3.50
2019-01-21T10:40:15.038Z,-3.40
2019-01-21T10:43:21.876Z,-3.40
2019-01-21T10:46:21.539Z,-3.40
2019-01-21T10:49:35.360Z,-3.40
2019-01-21T10:52:48.391Z,-3.30
2019-01-21T10:55:31.921Z,-3.20
2019-01-21T10:58:33.317Z,-3.20
2019-01-21T11:01:31.443Z,-3.10
2019-01-21T11:04:48.448Z,-3.00
2019-01-21T11:07:57.698Z,-2.90
2019-01-21T11:11:01.093Z,-2.80
2019-01-21T11:13:58.694Z,-2.70
2019-01-21T11:17:02.152Z,-2.60
2019-01-21T11:20:24.093Z,-2.50
2019-01-21T11:23:07.412Z,-2.40
2019-01-21T11:26:15.413Z,-2.30
2019-01-21T11:29:10.048Z,-2.30
2019-01-21T11:32:23.773Z,-2.20
2019-01-21T11:35:37.805Z,-2.00
2019-01-21T11:38:54.036Z,-1.90
2019-01-21T11:42:17.313Z,-1.90
2019-01-21T11:45:05.422Z,-1.80
2019-01-21T11:47:57.899Z,-1.80
2019-01-21T11:50:57.497Z,-1.80
2019-01-21T11:54:06.938Z,-1.70
2019-01-21T11:57:04.772Z,-1.60
2019-01-21T12:00:14.622Z,-1.60
2019-01-21T12:03:01.426Z,-1.60
2019-01-21T12:06:10.664Z,-1.50
2019-01-21T12:09:15.186Z,-1.50
2019-01-21T12:11:56.253Z,-1.50
2019-01-21T12:14:58.504Z,-1.40
2019-01-21T12:18:05.421Z,-1.40
2019-01-21T12:21:03.908Z,-1.40
2019-01-21T12:24:11.178Z,-1.30
2019-01-21T12:27:05.641Z,-1.30
2019-01-21T12:30:03.226Z,-1.30
2019-01-21T12:33:08.167Z,-1.30
2019-01-21T12:35:51.040Z,-1.30
2019-01-21T12:38:57.249Z,-1.20
2019-01-21T12:41:39.088Z,-1.20
2019-01-21T12:44:39.652Z,-1.10
2019-01-21T12:47:43.680Z,-1.10
2019-01-21T12:50:56.672Z,-1.10
2019-01-21T12:53:48.735Z,-1.00
2019-01-21T12:57:08.524Z,-1.00
2019-01-21T12:59:52.316Z,-1.00
2019-01-21T13:03:18.483Z,-1.00
2019-01-21T13:06:12.368Z,-1.00
2019-01-21T13:09:24.212Z,-0.90
2019-01-21T13:12:01.253Z,-0.90
2019-01-21T13:15:01.567Z,-0.80
2019-01-21T13:18:06.316Z,-0.80
2019-01-21T13:21:23.219Z,-0.80
2019-01-21T13:24:08.400Z,-0.80
2019-01-21T13:27:17.209Z,-0.80
2019-01-21T13:30:25.845Z,-0.70
2019-01-21T13:33:20.376Z,-0.70
2019-01-21T13:36:19.517Z,-0.70
2019-01-21T13:39:26.027Z,-0.70
2019-01-21T13:43:07.084Z,-0.70
2019-01-21T13:46:23.172Z,-0.70
2019-01-21T13:49:18.484Z,-0.70
2019-01-21T13:52:07.732Z,-0.70
2019-01-21T13:55:15.960Z,-0.70
2019-01-21T13:58:35.964Z,-0.70
2019-01-21T14:01:54.148Z,-0.60
2019-01-21T14:04:56.356Z,-0.60
2019-01-21T14:08:08.204Z,-0.60
2019-01-21T14:11:04.210Z,-0.60
2019-01-21T14:14:02.779Z,-0.60
2019-01-21T14:17:27.869Z,-0.50
2019-01-21T14:20:43.441Z,-0.60
2019-01-21T14:24:02.769Z,-0.50
2019-01-21T14:27:10.629Z,-0.50
2019-01-21T14:30:02.717Z,-0.50
2019-01-21T14:33:02.573Z,-0.50
2019-01-21T14:36:04.237Z,-0.50
2019-01-21T14:39:15.642Z,-0.50
2019-01-21T14:42:23.216Z,-0.50
2019-01-21T14:45:35.904Z,-0.60
2019-01-21T14:48:44.871Z,-0.60
2019-01-21T14:51:54.020Z,-0.50
2019-01-21T14:54:49.709Z,-0.50
2019-01-21T14:58:00.656Z,-0.50
2019-01-21T15:00:59.994Z,-0.60
2019-01-21T15:04:04.018Z,-0.60
2019-01-21T15:07:03.820Z,-0.60
2019-01-21T15:10:09.640Z,-0.60
2019-01-21T15:12:55.993Z,-0.60
2019-01-21T15:15:50.430Z,-0.60
2019-01-21T15:18:44.544Z,-0.60
2019-01-21T15:21:35.463Z,-0.70
2019-01-21T15:24:44.100Z,-0.70
2019-01-21T15:27:40.944Z,-0.70
2019-01-21T15:30:43.766Z,-0.80
2019-01-21T15:33:53.098Z,-0.70
2019-01-21T15:37:07.489Z,-0.80
2019-01-21T15:39:54.706Z,-0.80
2019-01-21T15:43:05.004Z,-0.80
2019-01-21T15:46:08.445Z,-0.80
2019-01-21T15:49:02.346Z,-0.90
2019-01-21T15:52:09.664Z,-0.90
2019-01-21T15:55:08.981Z,-0.90
2019-01-21T15:58:03.593Z,-0.90
2019-01-21T16:01:09.691Z,-1.00
2019-01-21T16:03:48.436Z,-1.00
2019-01-21T16:06:57.233Z,-1.10
2019-01-21T16:10:04.317Z,-1.10
2019-01-21T16:13:03.024Z,-1.10
2019-01-21T16:16:02.602Z,-1.20
2019-01-21T16:18:58.732Z,-1.20
2019-01-21T16:22:04.804Z,-1.20
2019-01-21T16:25:07.955Z,-1.20
2019-01-21T16:28:23.839Z,-1.30
2019-01-21T16:31:32.919Z,-1.40
2019-01-21T16:34:42.765Z,-1.40
2019-01-21T16:37:49.380Z,-1.50
2019-01-21T16:41:00.313Z,-1.50
2019-01-21T16:43:29.984Z,-1.50
2019-01-21T16:45:59.660Z,-1.60
2019-01-21T16:48:29.277Z,-1.60
2019-01-21T16:50:58.854Z,-1.60
2019-01-21T16:53:28.493Z,-1.70
2019-01-21T16:56:01.429Z,-1.70
2019-01-21T16:58:31.344Z,-1.70
2019-01-21T17:01:01.357Z,-1.70
2019-01-21T17:03:31.585Z,-1.80
2019-01-21T17:06:01.493Z,-1.80
2019-01-21T17:08:31.072Z,-1.80
2019-01-21T17:11:01.216Z,-1.80
2019-01-21T17:13:31.341Z,-1.80
2019-01-21T17:16:00.992Z,-1.80
2019-01-21T17:18:30.853Z,-1.80
2019-01-21T17:21:00.518Z,-1.90
2019-01-21T17:23:30.453Z,-1.90
2019-01-21T17:26:00.048Z,-2.00
2019-01-21T17:28:30.001Z,-2.00
2019-01-21T17:30:59.909Z,-2.00
2019-01-21T17:33:29.820Z,-2.10
2019-01-21T17:35:59.467Z,-2.10
2019-01-21T17:38:29.653Z,-2.10
2019-01-21T17:40:59.247Z,-2.10
2019-01-21T17:43:29.380Z,-2.20
2019-01-21T17:45:59.002Z,-2.20
2019-01-21T17:48:28.893Z,-2.20
2019-01-21T17:50:58.492Z,-2.20
2019-01-21T17:53:28.276Z,-2.20
2019-01-21T17:55:58.224Z,-2.30
2019-01-21T17:58:27.891Z,-2.30
2019-01-21T18:00:57.881Z,-2.30
2019-01-21T18:03:27.490Z,-2.40
2019-01-21T18:05:57.378Z,-2.30
2019-01-21T18:08:27.688Z,-2.30
2019-01-21T18:10:57.508Z,-2.30
2019-01-21T18:13:27.128Z,-2.40
2019-01-21T18:15:57.030Z,-2.40
2019-01-21T18:18:33.824Z,-2.50
2019-01-21T18:21:03.553Z,-2.50
2019-01-21T18:23:33.187Z,-2.50
2019-01-21T18:26:03.126Z,-2.50
2019-01-21T18:28:33.041Z,-2.60
2019-01-21T18:31:02.860Z,-2.60
2019-01-21T18:33:32.864Z,-2.60
2019-01-21T18:36:03.092Z,-2.70
2019-01-21T18:38:33.308Z,-2.70
2019-01-21T18:41:03.378Z,-2.70
2019-01-21T18:43:34.091Z,-2.70
2019-01-21T18:46:04.006Z,-2.80
2019-01-21T18:48:33.877Z,-2.80
2019-01-21T18:51:03.518Z,-2.80
2019-01-21T18:53:33.475Z,-2.80
2019-01-21T18:56:03.527Z,-2.80
2019-01-21T18:58:33.412Z,-2.90
2019-01-21T19:01:03.138Z,-2.90
2019-01-21T19:03:33.056Z,-3.00
2019-01-21T19:06:02.982Z,-3.10
2019-01-21T19:08:32.588Z,-3.20
2019-01-21T19:11:02.488Z,-3.20
2019-01-21T19:13:32.610Z,-3.20
2019-01-21T19:16:02.584Z,-3.20
2019-01-21T19:18:32.428Z,-3.20
2019-01-21T19:21:02.069Z,-3.20
2019-01-21T19:23:32.360Z,-3.20
2019-01-21T19:26:02.701Z,-3.20
2019-01-21T19:28:32.596Z,-3.20
2019-01-21T19:31:02.425Z,-3.20
2019-01-21T19:33:32.497Z,-3.20
2019-01-21T19:36:02.160Z,-3.30
2019-01-21T19:38:31.949Z,-3.30
2019-01-21T19:41:01.684Z,-3.30
2019-01-21T19:43:31.259Z,-3.40
2019-01-21T19:46:01.278Z,-3.30
2019-01-21T19:48:31.220Z,-3.40
2019-01-21T19:51:00.948Z,-3.40
2019-01-21T19:53:30.825Z,-3.40
2019-01-21T19:56:00.840Z,-3.40
2019-01-21T19:58:30.744Z,-3.50
2019-01-21T20:01:00.757Z,-3.50
2019-01-21T20:03:31.418Z,-3.50
2019-01-21T20:06:01.800Z,-3.50
2019-01-21T20:08:31.404Z,-3.60
2019-01-21T20:11:01.067Z,-3.60
2019-01-21T20:13:31.452Z,-3.60
2019-01-21T20:16:01.514Z,-3.60
2019-01-21T20:18:32.395Z,-3.60
2019-01-21T20:21:02.086Z,-3.60
2019-01-21T20:23:32.556Z,-3.60
2019-01-21T20:26:02.364Z,-3.60
2019-01-21T20:28:32.889Z,-3.60
2019-01-21T20:31:02.887Z,-3.60
2019-01-21T20:33:32.828Z,-3.60
2019-01-21T20:36:02.569Z,-3.60
2019-01-21T20:38:32.542Z,-3.60
2019-01-21T20:41:02.405Z,-3.60
2019-01-21T20:43:33.789Z,-3.70
2019-01-21T20:46:03.640Z,-3.70
2019-01-21T20:48:34.457Z,-3.70
2019-01-21T20:51:04.716Z,-3.70
2019-01-21T20:53:39.432Z,-3.70
2019-01-21T20:56:15.964Z,-3.70
2019-01-21T20:58:50.795Z,-3.70
2019-01-21T21:01:20.982Z,-3.80
2019-01-21T21:03:51.024Z,-3.80
2019-01-21T21:06:20.754Z,-3.80
2019-01-21T21:08:50.588Z,-3.80
2019-01-21T21:11:20.449Z,-3.80
2019-01-21T21:13:50.367Z,-3.90
2019-01-21T21:16:20.276Z,-3.90
2019-01-21T21:18:50.136Z,-3.90
2019-01-21T21:21:19.701Z,-3.90
2019-01-21T21:23:49.597Z,-3.90
2019-01-21T21:26:19.418Z,-3.90
2019-01-21T21:28:49.082Z,-4.00
2019-01-21T21:31:18.716Z,-4.00
2019-01-21T21:33:48.513Z,-4.00
2019-01-21T21:36:18.348Z,-4.10
2019-01-21T21:39:07.732Z,-4.10
2019-01-21T21:41:37.736Z,-4.10
2019-01-21T21:44:07.648Z,-4.20
2019-01-21T21:46:37.474Z,-4.20
2019-01-21T21:49:07.451Z,-4.20
2019-01-21T21:51:37.012Z,-4.10
2019-01-21T21:54:06.675Z,-4.10
2019-01-21T21:56:36.268Z,-4.20
2019-01-21T21:59:06.451Z,-4.20
2019-01-21T22:01:40.062Z,-4.30
2019-01-21T22:04:07.421Z,-4.30
2019-01-21T22:06:37.280Z,-4.30
2019-01-21T22:09:08.635Z,-4.30
2019-01-21T22:11:38.275Z,-4.20
2019-01-21T22:14:08.003Z,-4.30
2019-01-21T22:16:38.276Z,-4.30
2019-01-21T22:19:08.270Z,-4.20
2019-01-21T22:21:39.065Z,-4.20
2019-01-21T22:24:09.344Z,-4.20
2019-01-21T22:26:39.253Z,-4.20
2019-01-21T22:29:09.473Z,-4.30
2019-01-21T22:31:39.028Z,-4.30
2019-01-21T22:34:09.008Z,-4.40
2019-01-21T22:36:39.108Z,-4.50
2019-01-21T22:39:08.745Z,-4.50
2019-01-21T22:41:41.520Z,-4.50
2019-01-21T22:44:11.163Z,-4.60
2019-01-21T22:46:41.016Z,-4.50
2019-01-21T22:49:11.137Z,-4.50
2019-01-21T22:51:41.060Z,-4.50
2019-01-21T22:54:10.959Z,-4.60
2019-01-21T22:56:40.517Z,-4.60
2019-01-21T22:59:10.113Z,-4.50
2019-01-21T23:01:40.288Z,-4.60
2019-01-21T23:04:09.849Z,-4.60
2019-01-21T23:06:39.426Z,-4.70
2019-01-21T23:09:09.784Z,-4.70
2019-01-21T23:11:39.740Z,-4.80
2019-01-21T23:14:09.860Z,-4.80
2019-01-21T23:16:39.772Z,-4.90
2019-01-21T23:19:09.580Z,-4.90
2019-01-21T23:21:39.603Z,-4.90
2019-01-21T23:24:09.412Z,-4.90
2019-01-21T23:26:39.324Z,-4.90
2019-01-21T23:29:09.056Z,-4.90
2019-01-21T23:31:38.944Z,-4.90
2019-01-21T23:34:08.539Z,-4.90
2019-01-21T23:36:38.108Z,-4.90
2019-01-21T23:39:08.560Z,-4.80
2019-01-21T23:41:38.500Z,-4.80
2019-01-21T23:44:08.069Z,-4.80
2019-01-21T23:46:39.243Z,-4.80
2019-01-21T23:49:09.052Z,-4.80
2019-01-21T23:51:38.620Z,-4.80
2019-01-21T23:54:08.677Z,-4.90
2019-01-21T23:56:38.305Z,-5.00
2019-01-21T23:59:08.309Z,-5.00
